sensor_id;sensor_type;location;lat;lon;timestamp;temperature;humidity
25154;DHT22;47555;51.038;6.280;2023-04-15T00:02:25;5.60;90.70
25154;DHT22;47555;51.038;6.280;2023-04-15T00:04:51;5.50;90.40
25154;DHT22;47555;51.038;6.280;2023-04-15T00:07:16;5.50;90.40
25154;DHT22;47555;51.038;6.280;2023-04-15T00:09:42;5.40;90.50
25154;DHT22;47555;51.038;6.280;2023-04-15T00:12:10;5.30;91.10
25154;DHT22;47555;51.038;6.280;2023-04-15T00:14:36;5.20;91.10
25154;DHT22;47555;51.038;6.280;2023-04-15T00:17:02;5.20;90.80
25154;DHT22;47555;51.038;6.280;2023-04-15T00:19:28;5.20;90.70
25154;DHT22;47555;51.038;6.280;2023-04-15T00:21:54;5.10;90.60
25154;DHT22;47555;51.038;6.280;2023-04-15T00:24:19;5.00;90.20
25154;DHT22;47555;51.038;6.280;2023-04-15T00:26:45;5.00;90.40
25154;DHT22;47555;51.038;6.280;2023-04-15T00:29:10;4.90;90.70
25154;DHT22;47555;51.038;6.280;2023-04-15T00:31:36;4.80;90.70
25154;DHT22;47555;51.038;6.280;2023-04-15T00:34:01;4.80;91.10
25154;DHT22;47555;51.038;6.280;2023-04-15T00:36:28;4.70;91.60
25154;DHT22;47555;51.038;6.280;2023-04-15T00:38:53;4.80;92.20
25154;DHT22;47555;51.038;6.280;2023-04-15T00:41:19;4.70;92.60
25154;DHT22;47555;51.038;6.280;2023-04-15T00:43:45;4.80;92.20
25154;DHT22;47555;51.038;6.280;2023-04-15T00:46:13;4.70;91.70
25154;DHT22;47555;51.038;6.280;2023-04-15T00:48:40;4.70;91.30
25154;DHT22;47555;51.038;6.280;2023-04-15T00:51:06;4.70;91.10
25154;DHT22;47555;51.038;6.280;2023-04-15T00:53:33;4.60;92.40
25154;DHT22;47555;51.038;6.280;2023-04-15T00:55:59;4.60;93.50
25154;DHT22;47555;51.038;6.280;2023-04-15T00:58:25;4.60;93.10
25154;DHT22;47555;51.038;6.280;2023-04-15T01:00:52;4.50;93.00
25154;DHT22;47555;51.038;6.280;2023-04-15T01:03:19;4.50;93.60
25154;DHT22;47555;51.038;6.280;2023-04-15T01:05:45;4.50;93.70
25154;DHT22;47555;51.038;6.280;2023-04-15T01:08:11;4.40;93.60
25154;DHT22;47555;51.038;6.280;2023-04-15T01:10:37;4.40;93.80
25154;DHT22;47555;51.038;6.280;2023-04-15T01:13:03;4.40;93.80
25154;DHT22;47555;51.038;6.280;2023-04-15T01:15:31;4.30;93.90
25154;DHT22;47555;51.038;6.280;2023-04-15T01:17:58;4.30;93.90
25154;DHT22;47555;51.038;6.280;2023-04-15T01:20:23;4.30;94.40
25154;DHT22;47555;51.038;6.280;2023-04-15T01:22:49;4.30;94.70
25154;DHT22;47555;51.038;6.280;2023-04-15T01:25:24;4.30;94.70
25154;DHT22;47555;51.038;6.280;2023-04-15T01:27:50;4.20;94.60
25154;DHT22;47555;51.038;6.280;2023-04-15T01:30:16;4.20;94.70
25154;DHT22;47555;51.038;6.280;2023-04-15T01:32:41;4.20;94.90
25154;DHT22;47555;51.038;6.280;2023-04-15T01:35:07;4.10;95.30
25154;DHT22;47555;51.038;6.280;2023-04-15T01:37:33;4.10;95.40
25154;DHT22;47555;51.038;6.280;2023-04-15T01:39:59;4.10;95.60
25154;DHT22;47555;51.038;6.280;2023-04-15T01:42:24;4.00;96.10
25154;DHT22;47555;51.038;6.280;2023-04-15T01:44:50;4.00;96.30
25154;DHT22;47555;51.038;6.280;2023-04-15T01:47:16;4.00;96.50
25154;DHT22;47555;51.038;6.280;2023-04-15T01:49:41;3.90;96.70
25154;DHT22;47555;51.038;6.280;2023-04-15T01:52:07;3.70;97.30
25154;DHT22;47555;51.038;6.280;2023-04-15T01:54:33;3.90;97.40
25154;DHT22;47555;51.038;6.280;2023-04-15T01:56:58;3.90;97.60
25154;DHT22;47555;51.038;6.280;2023-04-15T01:59:24;3.90;98.20
25154;DHT22;47555;51.038;6.280;2023-04-15T02:01:50;3.90;98.30
25154;DHT22;47555;51.038;6.280;2023-04-15T02:04:16;3.90;98.40
25154;DHT22;47555;51.038;6.280;2023-04-15T02:06:42;3.90;98.40
25154;DHT22;47555;51.038;6.280;2023-04-15T02:09:09;3.90;98.40
25154;DHT22;47555;51.038;6.280;2023-04-15T02:11:35;3.80;98.80
25154;DHT22;47555;51.038;6.280;2023-04-15T02:14:02;3.80;98.60
25154;DHT22;47555;51.038;6.280;2023-04-15T02:16:29;3.80;98.80
25154;DHT22;47555;51.038;6.280;2023-04-15T02:18:55;3.80;99.20
25154;DHT22;47555;51.038;6.280;2023-04-15T02:21:20;3.90;99.60
25154;DHT22;47555;51.038;6.280;2023-04-15T02:23:47;3.90;99.90
25154;DHT22;47555;51.038;6.280;2023-04-15T02:26:13;3.90;99.60
25154;DHT22;47555;51.038;6.280;2023-04-15T02:28:39;3.90;99.20
25154;DHT22;47555;51.038;6.280;2023-04-15T02:31:07;3.90;99.10
25154;DHT22;47555;51.038;6.280;2023-04-15T02:33:34;3.80;98.80
25154;DHT22;47555;51.038;6.280;2023-04-15T02:36:00;3.80;98.60
25154;DHT22;47555;51.038;6.280;2023-04-15T02:38:25;3.80;98.90
25154;DHT22;47555;51.038;6.280;2023-04-15T02:40:51;3.70;98.90
25154;DHT22;47555;51.038;6.280;2023-04-15T02:43:17;3.70;99.20
25154;DHT22;47555;51.038;6.280;2023-04-15T02:45:43;3.60;99.20
25154;DHT22;47555;51.038;6.280;2023-04-15T02:48:10;3.60;99.30
25154;DHT22;47555;51.038;6.280;2023-04-15T02:50:35;3.60;99.40
25154;DHT22;47555;51.038;6.280;2023-04-15T02:53:03;3.50;99.60
25154;DHT22;47555;51.038;6.280;2023-04-15T02:55:30;3.50;99.70
25154;DHT22;47555;51.038;6.280;2023-04-15T02:57:55;3.40;99.70
25154;DHT22;47555;51.038;6.280;2023-04-15T03:00:23;3.40;99.90
25154;DHT22;47555;51.038;6.280;2023-04-15T03:02:49;3.40;99.90
25154;DHT22;47555;51.038;6.280;2023-04-15T03:05:21;3.30;99.90
25154;DHT22;47555;51.038;6.280;2023-04-15T03:07:50;3.40;99.90
25154;DHT22;47555;51.038;6.280;2023-04-15T03:10:16;3.30;99.90
25154;DHT22;47555;51.038;6.280;2023-04-15T03:12:42;3.30;99.90
25154;DHT22;47555;51.038;6.280;2023-04-15T03:15:08;3.30;99.90
25154;DHT22;47555;51.038;6.280;2023-04-15T03:17:34;3.30;99.90
25154;DHT22;47555;51.038;6.280;2023-04-15T03:20:01;3.20;99.90
25154;DHT22;47555;51.038;6.280;2023-04-15T03:22:29;3.20;99.90
25154;DHT22;47555;51.038;6.280;2023-04-15T03:24:55;3.10;99.90
25154;DHT22;47555;51.038;6.280;2023-04-15T03:27:24;3.10;99.90
25154;DHT22;47555;51.038;6.280;2023-04-15T03:29:50;3.10;99.90
25154;DHT22;47555;51.038;6.280;2023-04-15T03:32:16;3.10;99.90
25154;DHT22;47555;51.038;6.280;2023-04-15T03:34:42;3.00;99.90
25154;DHT22;47555;51.038;6.280;2023-04-15T03:37:09;3.00;99.90
25154;DHT22;47555;51.038;6.280;2023-04-15T03:39:34;3.00;99.90
25154;DHT22;47555;51.038;6.280;2023-04-15T03:42:00;3.10;99.90
25154;DHT22;47555;51.038;6.280;2023-04-15T03:44:26;3.30;99.90
25154;DHT22;47555;51.038;6.280;2023-04-15T03:46:52;3.20;99.90
25154;DHT22;47555;51.038;6.280;2023-04-15T03:49:19;3.30;99.90
25154;DHT22;47555;51.038;6.280;2023-04-15T03:51:45;3.40;99.90
25154;DHT22;47555;51.038;6.280;2023-04-15T03:54:10;3.50;99.90
25154;DHT22;47555;51.038;6.280;2023-04-15T03:56:38;3.60;99.90
25154;DHT22;47555;51.038;6.280;2023-04-15T03:59:04;3.70;99.90
25154;DHT22;47555;51.038;6.280;2023-04-15T04:01:30;3.80;99.90
25154;DHT22;47555;51.038;6.280;2023-04-15T04:03:56;3.90;99.90
25154;DHT22;47555;51.038;6.280;2023-04-15T04:06:22;4.00;99.90
25154;DHT22;47555;51.038;6.280;2023-04-15T04:08:47;3.90;99.90
25154;DHT22;47555;51.038;6.280;2023-04-15T04:11:13;4.00;99.90
25154;DHT22;47555;51.038;6.280;2023-04-15T04:13:39;4.10;99.90
25154;DHT22;47555;51.038;6.280;2023-04-15T04:16:05;4.10;99.90
25154;DHT22;47555;51.038;6.280;2023-04-15T04:18:31;4.20;99.90
25154;DHT22;47555;51.038;6.280;2023-04-15T04:20:57;4.20;99.90
25154;DHT22;47555;51.038;6.280;2023-04-15T04:23:23;4.30;99.90
25154;DHT22;47555;51.038;6.280;2023-04-15T04:25:48;4.20;99.90
25154;DHT22;47555;51.038;6.280;2023-04-15T04:28:14;4.20;99.90
25154;DHT22;47555;51.038;6.280;2023-04-15T04:30:39;4.30;99.90
25154;DHT22;47555;51.038;6.280;2023-04-15T04:33:06;4.30;99.90
25154;DHT22;47555;51.038;6.280;2023-04-15T04:35:32;4.40;99.70
25154;DHT22;47555;51.038;6.280;2023-04-15T04:37:59;4.50;99.30
25154;DHT22;47555;51.038;6.280;2023-04-15T04:40:25;4.70;97.80
25154;DHT22;47555;51.038;6.280;2023-04-15T04:42:52;4.70;97.40
25154;DHT22;47555;51.038;6.280;2023-04-15T04:45:17;4.80;96.60
25154;DHT22;47555;51.038;6.280;2023-04-15T04:47:43;4.90;96.40
25154;DHT22;47555;51.038;6.280;2023-04-15T04:50:09;4.90;95.60
25154;DHT22;47555;51.038;6.280;2023-04-15T04:52:35;4.90;95.20
25154;DHT22;47555;51.038;6.280;2023-04-15T04:55:00;5.00;95.00
25154;DHT22;47555;51.038;6.280;2023-04-15T04:57:26;5.00;94.70
25154;DHT22;47555;51.038;6.280;2023-04-15T04:59:51;5.00;94.10
25154;DHT22;47555;51.038;6.280;2023-04-15T05:02:17;5.10;94.20
25154;DHT22;47555;51.038;6.280;2023-04-15T05:04:43;5.10;93.70
25154;DHT22;47555;51.038;6.280;2023-04-15T05:07:08;5.10;93.70
25154;DHT22;47555;51.038;6.280;2023-04-15T05:09:34;5.10;93.50
25154;DHT22;47555;51.038;6.280;2023-04-15T05:12:01;5.10;93.70
25154;DHT22;47555;51.038;6.280;2023-04-15T05:14:27;5.10;93.50
25154;DHT22;47555;51.038;6.280;2023-04-15T05:16:53;5.10;93.20
25154;DHT22;47555;51.038;6.280;2023-04-15T05:19:19;5.10;93.50
25154;DHT22;47555;51.038;6.280;2023-04-15T05:21:44;5.10;93.20
25154;DHT22;47555;51.038;6.280;2023-04-15T05:24:10;5.20;93.30
25154;DHT22;47555;51.038;6.280;2023-04-15T05:26:35;5.20;93.60
25154;DHT22;47555;51.038;6.280;2023-04-15T05:29:01;5.20;93.80
25154;DHT22;47555;51.038;6.280;2023-04-15T05:31:27;5.30;93.50
25154;DHT22;47555;51.038;6.280;2023-04-15T05:33:52;5.30;93.60
25154;DHT22;47555;51.038;6.280;2023-04-15T05:36:18;5.30;93.40
25154;DHT22;47555;51.038;6.280;2023-04-15T05:38:43;5.40;93.60
25154;DHT22;47555;51.038;6.280;2023-04-15T05:41:09;5.50;93.30
25154;DHT22;47555;51.038;6.280;2023-04-15T05:43:34;5.50;93.80
25154;DHT22;47555;51.038;6.280;2023-04-15T05:46:00;5.60;93.30
25154;DHT22;47555;51.038;6.280;2023-04-15T05:48:25;5.70;93.40
25154;DHT22;47555;51.038;6.280;2023-04-15T05:50:51;5.80;92.80
25154;DHT22;47555;51.038;6.280;2023-04-15T05:53:20;6.00;93.00
25154;DHT22;47555;51.038;6.280;2023-04-15T05:55:45;6.00;93.20
25154;DHT22;47555;51.038;6.280;2023-04-15T05:58:11;6.10;93.00
25154;DHT22;47555;51.038;6.280;2023-04-15T06:00:37;6.30;92.00
25154;DHT22;47555;51.038;6.280;2023-04-15T06:03:03;6.40;91.90
25154;DHT22;47555;51.038;6.280;2023-04-15T06:05:28;6.60;89.90
25154;DHT22;47555;51.038;6.280;2023-04-15T06:07:54;6.70;89.60
25154;DHT22;47555;51.038;6.280;2023-04-15T06:10:19;7.00;86.90
25154;DHT22;47555;51.038;6.280;2023-04-15T06:12:45;7.00;86.90
25154;DHT22;47555;51.038;6.280;2023-04-15T06:15:10;7.10;87.10
25154;DHT22;47555;51.038;6.280;2023-04-15T06:17:36;7.20;85.30
25154;DHT22;47555;51.038;6.280;2023-04-15T06:20:02;7.30;85.50
25154;DHT22;47555;51.038;6.280;2023-04-15T06:22:28;7.40;83.70
25154;DHT22;47555;51.038;6.280;2023-04-15T06:24:54;7.60;84.30
25154;DHT22;47555;51.038;6.280;2023-04-15T06:27:20;7.60;82.90
25154;DHT22;47555;51.038;6.280;2023-04-15T06:29:45;7.70;82.80
25154;DHT22;47555;51.038;6.280;2023-04-15T06:32:11;7.80;83.20
25154;DHT22;47555;51.038;6.280;2023-04-15T06:34:37;7.90;83.00
25154;DHT22;47555;51.038;6.280;2023-04-15T06:37:03;8.00;82.90
25154;DHT22;47555;51.038;6.280;2023-04-15T06:39:28;8.20;82.60
25154;DHT22;47555;51.038;6.280;2023-04-15T06:41:54;8.50;81.40
25154;DHT22;47555;51.038;6.280;2023-04-15T06:44:20;8.60;79.60
25154;DHT22;47555;51.038;6.280;2023-04-15T06:46:46;8.80;80.40
25154;DHT22;47555;51.038;6.280;2023-04-15T06:49:12;8.90;79.40
25154;DHT22;47555;51.038;6.280;2023-04-15T06:51:37;9.10;78.10
25154;DHT22;47555;51.038;6.280;2023-04-15T06:54:03;9.20;77.80
25154;DHT22;47555;51.038;6.280;2023-04-15T06:56:33;9.30;77.60
25154;DHT22;47555;51.038;6.280;2023-04-15T06:58:59;9.40;77.30
25154;DHT22;47555;51.038;6.280;2023-04-15T07:01:25;9.50;76.30
25154;DHT22;47555;51.038;6.280;2023-04-15T07:03:51;9.50;76.50
25154;DHT22;47555;51.038;6.280;2023-04-15T07:06:16;9.60;75.90
25154;DHT22;47555;51.038;6.280;2023-04-15T07:08:42;9.60;75.50
25154;DHT22;47555;51.038;6.280;2023-04-15T07:11:08;9.70;74.00
25154;DHT22;47555;51.038;6.280;2023-04-15T07:13:34;9.70;74.80
25154;DHT22;47555;51.038;6.280;2023-04-15T07:15:59;9.60;74.80
25154;DHT22;47555;51.038;6.280;2023-04-15T07:18:25;9.60;74.90
25154;DHT22;47555;51.038;6.280;2023-04-15T07:20:51;9.60;75.10
25154;DHT22;47555;51.038;6.280;2023-04-15T07:23:16;9.70;75.50
25154;DHT22;47555;51.038;6.280;2023-04-15T07:25:42;9.70;76.30
25154;DHT22;47555;51.038;6.280;2023-04-15T07:28:08;9.60;76.80
25154;DHT22;47555;51.038;6.280;2023-04-15T07:30:34;9.60;78.30
25154;DHT22;47555;51.038;6.280;2023-04-15T07:33:00;9.50;78.50
25154;DHT22;47555;51.038;6.280;2023-04-15T07:35:26;9.40;79.50
25154;DHT22;47555;51.038;6.280;2023-04-15T07:37:52;9.40;80.00
25154;DHT22;47555;51.038;6.280;2023-04-15T07:40:18;9.50;80.40
25154;DHT22;47555;51.038;6.280;2023-04-15T07:42:45;9.40;80.30
25154;DHT22;47555;51.038;6.280;2023-04-15T07:45:12;9.50;81.50
25154;DHT22;47555;51.038;6.280;2023-04-15T07:47:38;9.50;82.00
25154;DHT22;47555;51.038;6.280;2023-04-15T07:50:05;9.60;81.90
25154;DHT22;47555;51.038;6.280;2023-04-15T07:52:31;9.70;82.40
25154;DHT22;47555;51.038;6.280;2023-04-15T07:54:59;9.80;81.50
25154;DHT22;47555;51.038;6.280;2023-04-15T07:57:25;10.00;80.70
25154;DHT22;47555;51.038;6.280;2023-04-15T07:59:50;10.20;78.90
25154;DHT22;47555;51.038;6.280;2023-04-15T08:02:16;10.40;76.90
25154;DHT22;47555;51.038;6.280;2023-04-15T08:04:42;10.50;75.80
25154;DHT22;47555;51.038;6.280;2023-04-15T08:07:08;10.70;74.80
25154;DHT22;47555;51.038;6.280;2023-04-15T08:09:33;10.80;73.30
25154;DHT22;47555;51.038;6.280;2023-04-15T08:11:59;11.00;73.10
25154;DHT22;47555;51.038;6.280;2023-04-15T08:14:25;11.20;70.80
25154;DHT22;47555;51.038;6.280;2023-04-15T08:16:51;11.30;71.20
25154;DHT22;47555;51.038;6.280;2023-04-15T08:19:16;11.40;70.30
25154;DHT22;47555;51.038;6.280;2023-04-15T08:21:42;11.60;66.20
25154;DHT22;47555;51.038;6.280;2023-04-15T08:24:07;11.80;62.90
25154;DHT22;47555;51.038;6.280;2023-04-15T08:26:33;11.80;62.80
25154;DHT22;47555;51.038;6.280;2023-04-15T08:28:58;12.00;61.50
25154;DHT22;47555;51.038;6.280;2023-04-15T08:31:25;12.10;59.20
25154;DHT22;47555;51.038;6.280;2023-04-15T08:33:51;12.30;58.60
25154;DHT22;47555;51.038;6.280;2023-04-15T08:36:18;12.30;57.00
25154;DHT22;47555;51.038;6.280;2023-04-15T08:38:44;12.40;58.30
25154;DHT22;47555;51.038;6.280;2023-04-15T08:41:17;12.60;57.30
25154;DHT22;47555;51.038;6.280;2023-04-15T08:43:57;12.80;55.00
25154;DHT22;47555;51.038;6.280;2023-04-15T08:46:23;12.80;57.10
25154;DHT22;47555;51.038;6.280;2023-04-15T08:48:49;12.90;55.70
25154;DHT22;47555;51.038;6.280;2023-04-15T08:51:16;13.10;56.70
25154;DHT22;47555;51.038;6.280;2023-04-15T08:53:43;13.20;51.30
25154;DHT22;47555;51.038;6.280;2023-04-15T08:56:11;13.20;51.00
25154;DHT22;47555;51.038;6.280;2023-04-15T08:58:38;13.10;48.90
25154;DHT22;47555;51.038;6.280;2023-04-15T09:01:04;13.20;48.70
25154;DHT22;47555;51.038;6.280;2023-04-15T09:03:29;13.20;55.10
25154;DHT22;47555;51.038;6.280;2023-04-15T09:05:56;13.30;56.20
25154;DHT22;47555;51.038;6.280;2023-04-15T09:08:22;13.40;56.60
25154;DHT22;47555;51.038;6.280;2023-04-15T09:10:47;13.50;54.40
25154;DHT22;47555;51.038;6.280;2023-04-15T09:13:13;13.60;55.90
25154;DHT22;47555;51.038;6.280;2023-04-15T09:15:39;13.70;57.30
25154;DHT22;47555;51.038;6.280;2023-04-15T09:18:05;14.00;54.20
25154;DHT22;47555;51.038;6.280;2023-04-15T09:20:40;14.20;55.10
25154;DHT22;47555;51.038;6.280;2023-04-15T09:23:14;14.40;50.20
25154;DHT22;47555;51.038;6.280;2023-04-15T09:25:40;14.50;45.80
25154;DHT22;47555;51.038;6.280;2023-04-15T09:28:09;14.50;44.40
25154;DHT22;47555;51.038;6.280;2023-04-15T09:30:35;14.40;46.80
25154;DHT22;47555;51.038;6.280;2023-04-15T09:33:02;14.50;47.30
25154;DHT22;47555;51.038;6.280;2023-04-15T09:35:32;14.60;47.50
25154;DHT22;47555;51.038;6.280;2023-04-15T09:38:06;14.60;45.50
25154;DHT22;47555;51.038;6.280;2023-04-15T09:40:36;14.60;45.40
25154;DHT22;47555;51.038;6.280;2023-04-15T09:43:03;14.60;47.40
25154;DHT22;47555;51.038;6.280;2023-04-15T09:45:30;14.60;47.00
25154;DHT22;47555;51.038;6.280;2023-04-15T09:47:57;14.70;48.60
25154;DHT22;47555;51.038;6.280;2023-04-15T09:50:26;14.70;45.70
25154;DHT22;47555;51.038;6.280;2023-04-15T09:52:53;14.80;45.10
25154;DHT22;47555;51.038;6.280;2023-04-15T09:55:19;14.80;42.30
25154;DHT22;47555;51.038;6.280;2023-04-15T09:57:45;14.70;40.10
25154;DHT22;47555;51.038;6.280;2023-04-15T10:00:14;14.70;42.40
25154;DHT22;47555;51.038;6.280;2023-04-15T10:02:40;14.60;40.70
25154;DHT22;47555;51.038;6.280;2023-04-15T10:05:13;14.50;40.80
25154;DHT22;47555;51.038;6.280;2023-04-15T10:07:39;14.40;41.10
25154;DHT22;47555;51.038;6.280;2023-04-15T10:10:10;14.30;40.10
25154;DHT22;47555;51.038;6.280;2023-04-15T10:12:37;14.00;41.90
25154;DHT22;47555;51.038;6.280;2023-04-15T10:15:05;14.00;43.20
25154;DHT22;47555;51.038;6.280;2023-04-15T10:17:32;14.10;44.90
25154;DHT22;47555;51.038;6.280;2023-04-15T10:20:04;14.20;45.90
25154;DHT22;47555;51.038;6.280;2023-04-15T10:22:31;14.20;45.20
25154;DHT22;47555;51.038;6.280;2023-04-15T10:24:57;14.20;43.70
25154;DHT22;47555;51.038;6.280;2023-04-15T10:27:24;14.20;44.80
25154;DHT22;47555;51.038;6.280;2023-04-15T10:29:50;14.20;42.20
25154;DHT22;47555;51.038;6.280;2023-04-15T10:32:18;14.20;41.80
25154;DHT22;47555;51.038;6.280;2023-04-15T10:34:46;14.10;41.90
25154;DHT22;47555;51.038;6.280;2023-04-15T10:37:18;14.20;40.90
25154;DHT22;47555;51.038;6.280;2023-04-15T10:39:44;14.20;41.60
25154;DHT22;47555;51.038;6.280;2023-04-15T10:42:18;14.20;44.50
25154;DHT22;47555;51.038;6.280;2023-04-15T10:44:51;14.30;44.20
25154;DHT22;47555;51.038;6.280;2023-04-15T10:47:21;14.30;43.70
25154;DHT22;47555;51.038;6.280;2023-04-15T10:49:50;14.20;44.10
25154;DHT22;47555;51.038;6.280;2023-04-15T10:52:21;14.20;42.60
25154;DHT22;47555;51.038;6.280;2023-04-15T10:54:47;14.20;44.50
25154;DHT22;47555;51.038;6.280;2023-04-15T10:57:21;14.30;42.70
25154;DHT22;47555;51.038;6.280;2023-04-15T11:00:03;14.50;43.30
25154;DHT22;47555;51.038;6.280;2023-04-15T11:05:03;14.70;40.40
25154;DHT22;47555;51.038;6.280;2023-04-15T11:07:56;14.70;40.80
25154;DHT22;47555;51.038;6.280;2023-04-15T11:13:00;14.90;39.20
25154;DHT22;47555;51.038;6.280;2023-04-15T11:15:44;15.00;38.20
25154;DHT22;47555;51.038;6.280;2023-04-15T11:18:12;15.10;39.30
25154;DHT22;47555;51.038;6.280;2023-04-15T11:20:46;15.10;39.70
25154;DHT22;47555;51.038;6.280;2023-04-15T11:23:13;15.10;39.70
25154;DHT22;47555;51.038;6.280;2023-04-15T11:25:39;15.10;39.30
25154;DHT22;47555;51.038;6.280;2023-04-15T11:28:05;15.00;40.10
25154;DHT22;47555;51.038;6.280;2023-04-15T11:30:34;15.00;39.10
25154;DHT22;47555;51.038;6.280;2023-04-15T11:33:04;14.90;39.10
25154;DHT22;47555;51.038;6.280;2023-04-15T11:35:30;15.00;41.10
25154;DHT22;47555;51.038;6.280;2023-04-15T11:37:55;15.00;42.20
25154;DHT22;47555;51.038;6.280;2023-04-15T11:40:23;15.00;41.20
25154;DHT22;47555;51.038;6.280;2023-04-15T11:45:35;14.60;43.60
25154;DHT22;47555;51.038;6.280;2023-04-15T11:48:09;14.50;40.60
25154;DHT22;47555;51.038;6.280;2023-04-15T11:50:35;14.40;42.10
25154;DHT22;47555;51.038;6.280;2023-04-15T11:53:03;14.30;40.10
25154;DHT22;47555;51.038;6.280;2023-04-15T11:55:30;14.40;38.50
25154;DHT22;47555;51.038;6.280;2023-04-15T11:58:13;14.30;39.70
25154;DHT22;47555;51.038;6.280;2023-04-15T12:00:40;14.30;39.30
25154;DHT22;47555;51.038;6.280;2023-04-15T12:03:28;14.30;40.40
25154;DHT22;47555;51.038;6.280;2023-04-15T12:06:22;14.50;41.60
25154;DHT22;47555;51.038;6.280;2023-04-15T12:11:45;15.00;43.00
25154;DHT22;47555;51.038;6.280;2023-04-15T12:16:40;15.40;42.00
25154;DHT22;47555;51.038;6.280;2023-04-15T12:19:09;15.40;41.20
25154;DHT22;47555;51.038;6.280;2023-04-15T12:21:37;15.30;41.20
25154;DHT22;47555;51.038;6.280;2023-04-15T12:24:04;15.00;38.60
25154;DHT22;47555;51.038;6.280;2023-04-15T12:29:03;15.00;39.80
25154;DHT22;47555;51.038;6.280;2023-04-15T12:31:29;15.00;41.20
25154;DHT22;47555;51.038;6.280;2023-04-15T12:33:56;15.20;40.70
25154;DHT22;47555;51.038;6.280;2023-04-15T12:36:22;15.30;40.30
25154;DHT22;47555;51.038;6.280;2023-04-15T12:38:48;15.50;39.20
25154;DHT22;47555;51.038;6.280;2023-04-15T12:41:14;15.40;39.40
25154;DHT22;47555;51.038;6.280;2023-04-15T12:43:39;15.30;40.90
25154;DHT22;47555;51.038;6.280;2023-04-15T12:46:06;15.30;40.80
25154;DHT22;47555;51.038;6.280;2023-04-15T12:48:33;15.50;41.00
25154;DHT22;47555;51.038;6.280;2023-04-15T12:50:59;15.40;38.90
25154;DHT22;47555;51.038;6.280;2023-04-15T12:53:24;15.10;39.70
25154;DHT22;47555;51.038;6.280;2023-04-15T12:55:50;14.90;41.10
25154;DHT22;47555;51.038;6.280;2023-04-15T12:58:16;14.80;39.50
25154;DHT22;47555;51.038;6.280;2023-04-15T13:00:42;14.60;38.90
25154;DHT22;47555;51.038;6.280;2023-04-15T13:03:07;14.40;39.40
25154;DHT22;47555;51.038;6.280;2023-04-15T13:05:33;14.30;40.20
25154;DHT22;47555;51.038;6.280;2023-04-15T13:07:58;14.30;40.80
25154;DHT22;47555;51.038;6.280;2023-04-15T13:10:24;14.40;41.90
25154;DHT22;47555;51.038;6.280;2023-04-15T13:12:50;14.40;42.50
25154;DHT22;47555;51.038;6.280;2023-04-15T13:15:18;14.40;41.70
25154;DHT22;47555;51.038;6.280;2023-04-15T13:17:45;14.40;42.70
25154;DHT22;47555;51.038;6.280;2023-04-15T13:20:11;14.50;41.50
25154;DHT22;47555;51.038;6.280;2023-04-15T13:22:36;14.50;42.00
25154;DHT22;47555;51.038;6.280;2023-04-15T13:25:02;14.50;43.80
25154;DHT22;47555;51.038;6.280;2023-04-15T13:27:28;14.40;43.00
25154;DHT22;47555;51.038;6.280;2023-04-15T13:29:53;14.40;44.40
25154;DHT22;47555;51.038;6.280;2023-04-15T13:32:19;14.50;44.50
25154;DHT22;47555;51.038;6.280;2023-04-15T13:34:45;14.50;43.80
25154;DHT22;47555;51.038;6.280;2023-04-15T13:37:10;14.50;43.80
25154;DHT22;47555;51.038;6.280;2023-04-15T13:39:36;14.60;42.90
25154;DHT22;47555;51.038;6.280;2023-04-15T13:42:02;14.60;43.60
25154;DHT22;47555;51.038;6.280;2023-04-15T13:44:28;14.60;42.80
25154;DHT22;47555;51.038;6.280;2023-04-15T13:46:54;14.50;44.00
25154;DHT22;47555;51.038;6.280;2023-04-15T13:49:20;14.40;42.00
25154;DHT22;47555;51.038;6.280;2023-04-15T13:51:46;14.40;41.60
25154;DHT22;47555;51.038;6.280;2023-04-15T13:54:11;14.30;42.10
25154;DHT22;47555;51.038;6.280;2023-04-15T13:56:37;14.30;43.40
25154;DHT22;47555;51.038;6.280;2023-04-15T13:59:02;14.50;43.00
25154;DHT22;47555;51.038;6.280;2023-04-15T14:01:28;14.60;40.40
25154;DHT22;47555;51.038;6.280;2023-04-15T14:03:54;14.60;41.10
25154;DHT22;47555;51.038;6.280;2023-04-15T14:06:20;14.60;41.10
25154;DHT22;47555;51.038;6.280;2023-04-15T14:08:46;14.60;41.80
25154;DHT22;47555;51.038;6.280;2023-04-15T14:11:11;14.60;41.20
25154;DHT22;47555;51.038;6.280;2023-04-15T14:13:37;14.50;40.80
25154;DHT22;47555;51.038;6.280;2023-04-15T14:16:02;14.40;42.10
25154;DHT22;47555;51.038;6.280;2023-04-15T14:18:28;14.40;42.40
25154;DHT22;47555;51.038;6.280;2023-04-15T14:20:54;14.30;43.20
25154;DHT22;47555;51.038;6.280;2023-04-15T14:23:21;14.20;42.80
25154;DHT22;47555;51.038;6.280;2023-04-15T14:25:46;14.20;44.70
25154;DHT22;47555;51.038;6.280;2023-04-15T14:28:12;14.30;43.20
25154;DHT22;47555;51.038;6.280;2023-04-15T14:30:37;14.30;43.50
25154;DHT22;47555;51.038;6.280;2023-04-15T14:33:06;14.30;44.70
25154;DHT22;47555;51.038;6.280;2023-04-15T14:35:31;14.20;43.30
25154;DHT22;47555;51.038;6.280;2023-04-15T14:37:57;14.00;42.70
25154;DHT22;47555;51.038;6.280;2023-04-15T14:40:23;14.00;43.10
25154;DHT22;47555;51.038;6.280;2023-04-15T14:42:48;14.10;43.30
25154;DHT22;47555;51.038;6.280;2023-04-15T14:45:14;14.20;44.90
25154;DHT22;47555;51.038;6.280;2023-04-15T14:47:39;14.30;43.90
25154;DHT22;47555;51.038;6.280;2023-04-15T14:50:05;14.40;41.90
25154;DHT22;47555;51.038;6.280;2023-04-15T14:52:31;14.50;43.40
25154;DHT22;47555;51.038;6.280;2023-04-15T14:55:07;14.60;43.80
25154;DHT22;47555;51.038;6.280;2023-04-15T14:57:34;15.00;42.90
25154;DHT22;47555;51.038;6.280;2023-04-15T15:00:00;15.10;39.30
25154;DHT22;47555;51.038;6.280;2023-04-15T15:02:25;15.00;38.70
25154;DHT22;47555;51.038;6.280;2023-04-15T15:04:51;14.80;39.50
25154;DHT22;47555;51.038;6.280;2023-04-15T15:07:17;14.70;38.80
25154;DHT22;47555;51.038;6.280;2023-04-15T15:09:42;14.50;41.20
25154;DHT22;47555;51.038;6.280;2023-04-15T15:12:08;14.40;40.20
25154;DHT22;47555;51.038;6.280;2023-04-15T15:14:33;14.30;41.50
25154;DHT22;47555;51.038;6.280;2023-04-15T15:16:59;14.40;41.60
25154;DHT22;47555;51.038;6.280;2023-04-15T15:19:24;14.40;42.30
25154;DHT22;47555;51.038;6.280;2023-04-15T15:21:50;14.40;42.10
25154;DHT22;47555;51.038;6.280;2023-04-15T15:24:15;14.50;41.80
25154;DHT22;47555;51.038;6.280;2023-04-15T15:26:41;14.60;42.30
25154;DHT22;47555;51.038;6.280;2023-04-15T15:29:06;14.70;40.20
25154;DHT22;47555;51.038;6.280;2023-04-15T15:31:34;14.70;39.30
25154;DHT22;47555;51.038;6.280;2023-04-15T15:34:00;14.60;39.90
25154;DHT22;47555;51.038;6.280;2023-04-15T15:36:25;14.60;39.60
25154;DHT22;47555;51.038;6.280;2023-04-15T15:38:51;14.50;39.70
25154;DHT22;47555;51.038;6.280;2023-04-15T15:41:17;14.50;40.70
25154;DHT22;47555;51.038;6.280;2023-04-15T15:43:46;14.40;41.30
25154;DHT22;47555;51.038;6.280;2023-04-15T15:46:11;14.40;41.90
25154;DHT22;47555;51.038;6.280;2023-04-15T15:48:40;14.40;42.70
25154;DHT22;47555;51.038;6.280;2023-04-15T15:51:05;14.40;42.80